<?xml version="1.0" encoding="UTF-8" standalone="no" ?>
<gpx xmlns="http://www.topografix.com/GPX/1/1" xmlns:xsi="http://www.w3.org/2001/XMLSchema-instance" xsi:schemaLocation="http://www.topografix.com/GPX/1/1 http://www.topografix.com/GPX/1/1/gpx.xsd" version="1.1" creator="VisuGPX - https://www.visugpx.com">
  <metadata>
    <name>Boucle 2 jours Saint-Guilhem</name>
    <desc><![CDATA[#fait]]></desc>
  </metadata>
  <wpt lat="43.83953" lon="3.48044">
    <ele>630.2</ele>
    <name><![CDATA[Les Besses]]></name>
  </wpt>
  <wpt lat="43.84383" lon="3.51206">
    <ele>581.6</ele>
    <name><![CDATA[Chapelle]]></name>
  </wpt>
  <wpt lat="43.83787" lon="3.50968">
    <ele>587.3</ele>
    <name><![CDATA[D25]]></name>
  </wpt>
  <wpt lat="43.82218" lon="3.52829">
    <ele>591.3</ele>
    <name><![CDATA[D130]]></name>
  </wpt>
  <wpt lat="43.81811" lon="3.53575">
    <ele>553</ele>
    <name><![CDATA[Le Coulet]]></name>
  </wpt>
  <wpt lat="43.79935" lon="3.55316">
    <ele>701.9</ele>
    <name><![CDATA[Carrefour GR GRP]]></name>
  </wpt>
  <wpt lat="43.77674" lon="3.53779">
    <ele>531</ele>
    <name><![CDATA[Gîte de Mas Aubert]]></name>
  </wpt>
  <wpt lat="43.75789" lon="3.53666">
    <ele>522.7</ele>
    <name><![CDATA[Cap de Ginestet]]></name>
  </wpt>
  <wpt lat="43.75424" lon="3.54307">
    <ele>388.9</ele>
    <name><![CDATA[Notre Dame de Belle Grâce]]></name>
  </wpt>
  <wpt lat="43.73449" lon="3.5476">
    <ele>103</ele>
    <name><![CDATA[Saint Guilhem le Désert]]></name>
  </wpt>
  <wpt lat="43.73456" lon="3.54814">
    <ele>102.3</ele>
    <name><![CDATA[Saint Guilhem le Désert]]></name>
  </wpt>
  <wpt lat="43.73633" lon="3.53762">
    <ele>267.2</ele>
    <name><![CDATA[Carrefour GR]]></name>
  </wpt>
  <wpt lat="43.74126" lon="3.50179">
    <ele>456.9</ele>
    <name><![CDATA[D122]]></name>
  </wpt>
  <wpt lat="43.73512" lon="3.49256">
    <ele>401.2</ele>
    <name><![CDATA[Gite du Font du Griffe]]></name>
  </wpt>
  <wpt lat="43.74284" lon="3.48548">
    <ele>834.5</ele>
    <name><![CDATA[Mont Saint-Baudille]]></name>
  </wpt>
  <wpt lat="43.75326" lon="3.47938">
    <ele>678.7</ele>
    <name><![CDATA[ D9E1D]]></name>
  </wpt>
  <wpt lat="43.75732" lon="3.46574">
    <ele>686.3</ele>
    <name><![CDATA[D9]]></name>
  </wpt>
  <wpt lat="43.77492" lon="3.4466">
    <ele>772.5</ele>
    <name><![CDATA[Carrefour GR]]></name>
  </wpt>
  <wpt lat="43.77886" lon="3.4557">
    <ele>789.3</ele>
    <name><![CDATA[Bergerie de Tedenat.]]></name>
  </wpt>
  <wpt lat="43.78961" lon="3.45956">
    <ele>630.6</ele>
    <name><![CDATA[La Vacquerie]]></name>
  </wpt>
  <wpt lat="43.81547" lon="3.47351">
    <ele>576.4</ele>
    <name><![CDATA[D25]]></name>
  </wpt>
  <wpt lat="43.84024" lon="3.48093">
    <ele>631.2</ele>
    <name><![CDATA[Les Besses]]></name>
  </wpt>
  <trk>
    <name><![CDATA[Saint-Guilhem - Les Besses]]></name>
    <extensions>
      <line xmlns="http://www.topografix.com/GPX/gpx_style/0/2">
        <color>00FF00</color>
        <width>4</width>
      </line>
    </extensions>
    <trkseg>
      <trkpt lat="43.73456" lon="3.54814">
        <ele>111</ele>
        <time>2021-10-21T20:51:19+02:00</time>
      </trkpt>
      <trkpt lat="43.73534" lon="3.54788">
        <ele>113</ele>
        <time>2021-10-21T20:51:24+02:00</time>
      </trkpt>
      <trkpt lat="43.73658" lon="3.54775">
        <ele>120</ele>
        <time>2021-10-21T20:51:29+02:00</time>
      </trkpt>
      <trkpt lat="43.73683" lon="3.54655">
        <ele>124</ele>
        <time>2021-10-21T20:51:34+02:00</time>
      </trkpt>
      <trkpt lat="43.73661" lon="3.54655">
        <ele>123</ele>
        <time>2021-10-21T20:51:39+02:00</time>
      </trkpt>
      <trkpt lat="43.73646" lon="3.54547">
        <ele>131</ele>
        <time>2021-10-21T20:51:44+02:00</time>
      </trkpt>
      <trkpt lat="43.73658" lon="3.54402">
        <ele>139</ele>
        <time>2021-10-21T20:51:49+02:00</time>
      </trkpt>
      <trkpt lat="43.73621" lon="3.54449">
        <ele>154</ele>
        <time>2021-10-21T20:51:54+02:00</time>
      </trkpt>
      <trkpt lat="43.73621" lon="3.5435">
        <ele>166</ele>
        <time>2021-10-21T20:51:59+02:00</time>
      </trkpt>
      <trkpt lat="43.73649" lon="3.54226">
        <ele>168</ele>
        <time>2021-10-21T20:52:04+02:00</time>
      </trkpt>
      <trkpt lat="43.73624" lon="3.54118">
        <ele>182</ele>
        <time>2021-10-21T20:52:09+02:00</time>
      </trkpt>
      <trkpt lat="43.73605" lon="3.54247">
        <ele>189</ele>
        <time>2021-10-21T20:52:14+02:00</time>
      </trkpt>
      <trkpt lat="43.73562" lon="3.5414">
        <ele>211</ele>
        <time>2021-10-21T20:52:19+02:00</time>
      </trkpt>
      <trkpt lat="43.73537" lon="3.5411">
        <ele>223</ele>
        <time>2021-10-21T20:52:24+02:00</time>
      </trkpt>
      <trkpt lat="43.73522" lon="3.53964">
        <ele>245</ele>
        <time>2021-10-21T20:52:29+02:00</time>
      </trkpt>
      <trkpt lat="43.73593" lon="3.5396">
        <ele>227</ele>
        <time>2021-10-21T20:52:34+02:00</time>
      </trkpt>
      <trkpt lat="43.73636" lon="3.53844">
        <ele>263</ele>
        <time>2021-10-21T20:52:39+02:00</time>
      </trkpt>
      <trkpt lat="43.73633" lon="3.53762">
        <ele>278</ele>
        <time>2021-10-21T20:52:44+02:00</time>
      </trkpt>
      <trkpt lat="43.73608" lon="3.53462">
        <ele>321</ele>
        <time>2021-10-21T20:52:49+02:00</time>
      </trkpt>
      <trkpt lat="43.73639" lon="3.53264">
        <ele>295</ele>
        <time>2021-10-21T20:52:54+02:00</time>
      </trkpt>
      <trkpt lat="43.73658" lon="3.53127">
        <ele>296</ele>
        <time>2021-10-21T20:52:59+02:00</time>
      </trkpt>
      <trkpt lat="43.73726" lon="3.53045">
        <ele>320</ele>
        <time>2021-10-21T20:53:04+02:00</time>
      </trkpt>
      <trkpt lat="43.73782" lon="3.53007">
        <ele>346</ele>
        <time>2021-10-21T20:53:09+02:00</time>
      </trkpt>
      <trkpt lat="43.73813" lon="3.52985">
        <ele>358</ele>
        <time>2021-10-21T20:53:14+02:00</time>
      </trkpt>
      <trkpt lat="43.73847" lon="3.5302">
        <ele>337</ele>
        <time>2021-10-21T20:53:19+02:00</time>
      </trkpt>
      <trkpt lat="43.73918" lon="3.53024">
        <ele>338</ele>
        <time>2021-10-21T20:53:24+02:00</time>
      </trkpt>
      <trkpt lat="43.73946" lon="3.53003">
        <ele>329</ele>
        <time>2021-10-21T20:53:29+02:00</time>
      </trkpt>
      <trkpt lat="43.73956" lon="3.52792">
        <ele>328</ele>
        <time>2021-10-21T20:53:34+02:00</time>
      </trkpt>
      <trkpt lat="43.73977" lon="3.52766">
        <ele>315</ele>
        <time>2021-10-21T20:53:39+02:00</time>
      </trkpt>
      <trkpt lat="43.73953" lon="3.52591">
        <ele>313</ele>
        <time>2021-10-21T20:53:44+02:00</time>
      </trkpt>
      <trkpt lat="43.73909" lon="3.5256">
        <ele>328</ele>
        <time>2021-10-21T20:53:49+02:00</time>
      </trkpt>
      <trkpt lat="43.73943" lon="3.52556">
        <ele>315</ele>
        <time>2021-10-21T20:53:54+02:00</time>
      </trkpt>
      <trkpt lat="43.73928" lon="3.52337">
        <ele>314</ele>
        <time>2021-10-21T20:53:59+02:00</time>
      </trkpt>
      <trkpt lat="43.73993" lon="3.52221">
        <ele>315</ele>
        <time>2021-10-21T20:54:04+02:00</time>
      </trkpt>
      <trkpt lat="43.73993" lon="3.52071">
        <ele>319</ele>
        <time>2021-10-21T20:54:09+02:00</time>
      </trkpt>
      <trkpt lat="43.74039" lon="3.52007">
        <ele>324</ele>
        <time>2021-10-21T20:54:14+02:00</time>
      </trkpt>
      <trkpt lat="43.74098" lon="3.51947">
        <ele>330</ele>
        <time>2021-10-21T20:54:19+02:00</time>
      </trkpt>
      <trkpt lat="43.74098" lon="3.51852">
        <ele>331</ele>
        <time>2021-10-21T20:54:24+02:00</time>
      </trkpt>
      <trkpt lat="43.7407" lon="3.51818">
        <ele>334</ele>
        <time>2021-10-21T20:54:29+02:00</time>
      </trkpt>
      <trkpt lat="43.74148" lon="3.51711">
        <ele>339</ele>
        <time>2021-10-21T20:54:34+02:00</time>
      </trkpt>
      <trkpt lat="43.7417" lon="3.51638">
        <ele>334</ele>
        <time>2021-10-21T20:54:39+02:00</time>
      </trkpt>
      <trkpt lat="43.74198" lon="3.51552">
        <ele>339</ele>
        <time>2021-10-21T20:54:44+02:00</time>
      </trkpt>
      <trkpt lat="43.74188" lon="3.51488">
        <ele>348</ele>
        <time>2021-10-21T20:54:49+02:00</time>
      </trkpt>
      <trkpt lat="43.74225" lon="3.51419">
        <ele>364</ele>
        <time>2021-10-21T20:54:54+02:00</time>
      </trkpt>
      <trkpt lat="43.74213" lon="3.5132">
        <ele>366</ele>
        <time>2021-10-21T20:54:59+02:00</time>
      </trkpt>
      <trkpt lat="43.74272" lon="3.51226">
        <ele>371</ele>
        <time>2021-10-21T20:55:04+02:00</time>
      </trkpt>
      <trkpt lat="43.74325" lon="3.51106">
        <ele>373</ele>
        <time>2021-10-21T20:55:09+02:00</time>
      </trkpt>
      <trkpt lat="43.74294" lon="3.50981">
        <ele>385</ele>
        <time>2021-10-21T20:55:14+02:00</time>
      </trkpt>
      <trkpt lat="43.7426" lon="3.50852">
        <ele>392</ele>
        <time>2021-10-21T20:55:19+02:00</time>
      </trkpt>
      <trkpt lat="43.74253" lon="3.50685">
        <ele>404</ele>
        <time>2021-10-21T20:55:24+02:00</time>
      </trkpt>
      <trkpt lat="43.74222" lon="3.50638">
        <ele>417</ele>
        <time>2021-10-21T20:55:29+02:00</time>
      </trkpt>
      <trkpt lat="43.74247" lon="3.50595">
        <ele>418</ele>
        <time>2021-10-21T20:55:34+02:00</time>
      </trkpt>
      <trkpt lat="43.74263" lon="3.50513">
        <ele>430</ele>
        <time>2021-10-21T20:55:39+02:00</time>
      </trkpt>
      <trkpt lat="43.74213" lon="3.50466">
        <ele>438</ele>
        <time>2021-10-21T20:55:44+02:00</time>
      </trkpt>
      <trkpt lat="43.74111" lon="3.50535">
        <ele>436</ele>
        <time>2021-10-21T20:55:49+02:00</time>
      </trkpt>
      <trkpt lat="43.74074" lon="3.50548">
        <ele>435</ele>
        <time>2021-10-21T20:55:54+02:00</time>
      </trkpt>
      <trkpt lat="43.74083" lon="3.5041">
        <ele>439</ele>
        <time>2021-10-21T20:55:59+02:00</time>
      </trkpt>
      <trkpt lat="43.74126" lon="3.50179">
        <ele>463</ele>
        <time>2021-10-21T20:56:04+02:00</time>
      </trkpt>
      <trkpt lat="43.74089" lon="3.50123">
        <ele>461</ele>
        <time>2021-10-21T20:56:09+02:00</time>
      </trkpt>
      <trkpt lat="43.74074" lon="3.50076">
        <ele>467</ele>
        <time>2021-10-21T20:56:14+02:00</time>
      </trkpt>
      <trkpt lat="43.74039" lon="3.50076">
        <ele>462</ele>
        <time>2021-10-21T20:56:19+02:00</time>
      </trkpt>
      <trkpt lat="43.74021" lon="3.50119">
        <ele>453</ele>
        <time>2021-10-21T20:56:24+02:00</time>
      </trkpt>
      <trkpt lat="43.73984" lon="3.5014">
        <ele>445</ele>
        <time>2021-10-21T20:56:29+02:00</time>
      </trkpt>
      <trkpt lat="43.73968" lon="3.50089">
        <ele>449</ele>
        <time>2021-10-21T20:56:34+02:00</time>
      </trkpt>
      <trkpt lat="43.73993" lon="3.50024">
        <ele>459</ele>
        <time>2021-10-21T20:56:39+02:00</time>
      </trkpt>
      <trkpt lat="43.73943" lon="3.4999">
        <ele>454</ele>
        <time>2021-10-21T20:56:44+02:00</time>
      </trkpt>
      <trkpt lat="43.73925" lon="3.49913">
        <ele>458</ele>
        <time>2021-10-21T20:56:49+02:00</time>
      </trkpt>
      <trkpt lat="43.73884" lon="3.49925">
        <ele>453</ele>
        <time>2021-10-21T20:56:54+02:00</time>
      </trkpt>
      <trkpt lat="43.73841" lon="3.49857">
        <ele>449</ele>
        <time>2021-10-21T20:56:59+02:00</time>
      </trkpt>
      <trkpt lat="43.73869" lon="3.49788">
        <ele>455</ele>
        <time>2021-10-21T20:57:04+02:00</time>
      </trkpt>
      <trkpt lat="43.73732" lon="3.49578">
        <ele>436</ele>
        <time>2021-10-21T20:57:09+02:00</time>
      </trkpt>
      <trkpt lat="43.73624" lon="3.49466">
        <ele>415</ele>
        <time>2021-10-21T20:57:14+02:00</time>
      </trkpt>
      <trkpt lat="43.73621" lon="3.49385">
        <ele>423</ele>
        <time>2021-10-21T20:57:19+02:00</time>
      </trkpt>
      <trkpt lat="43.73512" lon="3.49256">
        <ele>406</ele>
        <time>2021-10-21T20:57:24+02:00</time>
      </trkpt>
      <trkpt lat="43.73456" lon="3.49119">
        <ele>411</ele>
        <time>2021-10-21T20:57:29+02:00</time>
      </trkpt>
      <trkpt lat="43.73435" lon="3.48981">
        <ele>418</ele>
        <time>2021-10-21T20:57:34+02:00</time>
      </trkpt>
      <trkpt lat="43.73518" lon="3.49144">
        <ele>429</ele>
        <time>2021-10-21T20:57:39+02:00</time>
      </trkpt>
      <trkpt lat="43.73587" lon="3.492">
        <ele>446</ele>
        <time>2021-10-21T20:57:44+02:00</time>
      </trkpt>
      <trkpt lat="43.73627" lon="3.49269">
        <ele>450</ele>
        <time>2021-10-21T20:57:49+02:00</time>
      </trkpt>
      <trkpt lat="43.73674" lon="3.49346">
        <ele>451</ele>
        <time>2021-10-21T20:57:54+02:00</time>
      </trkpt>
      <trkpt lat="43.73748" lon="3.49385">
        <ele>473</ele>
        <time>2021-10-21T20:57:59+02:00</time>
      </trkpt>
      <trkpt lat="43.73695" lon="3.49295">
        <ele>472</ele>
        <time>2021-10-21T20:58:04+02:00</time>
      </trkpt>
      <trkpt lat="43.73661" lon="3.49114">
        <ele>503</ele>
        <time>2021-10-21T20:58:09+02:00</time>
      </trkpt>
      <trkpt lat="43.73636" lon="3.49046">
        <ele>504</ele>
        <time>2021-10-21T20:58:14+02:00</time>
      </trkpt>
      <trkpt lat="43.73633" lon="3.4896">
        <ele>511</ele>
        <time>2021-10-21T20:58:19+02:00</time>
      </trkpt>
      <trkpt lat="43.73708" lon="3.49067">
        <ele>532</ele>
        <time>2021-10-21T20:58:24+02:00</time>
      </trkpt>
      <trkpt lat="43.73698" lon="3.48896">
        <ele>543</ele>
        <time>2021-10-21T20:58:29+02:00</time>
      </trkpt>
      <trkpt lat="43.73798" lon="3.48801">
        <ele>577</ele>
        <time>2021-10-21T20:58:34+02:00</time>
      </trkpt>
      <trkpt lat="43.73748" lon="3.48702">
        <ele>577</ele>
        <time>2021-10-21T20:58:39+02:00</time>
      </trkpt>
      <trkpt lat="43.73729" lon="3.48595">
        <ele>587</ele>
        <time>2021-10-21T20:58:44+02:00</time>
      </trkpt>
      <trkpt lat="43.73782" lon="3.48651">
        <ele>597</ele>
        <time>2021-10-21T20:58:49+02:00</time>
      </trkpt>
      <trkpt lat="43.73813" lon="3.48664">
        <ele>603</ele>
        <time>2021-10-21T20:58:54+02:00</time>
      </trkpt>
      <trkpt lat="43.7376" lon="3.48453">
        <ele>622</ele>
        <time>2021-10-21T20:58:59+02:00</time>
      </trkpt>
      <trkpt lat="43.73711" lon="3.48299">
        <ele>640</ele>
        <time>2021-10-21T20:59:04+02:00</time>
      </trkpt>
      <trkpt lat="43.73674" lon="3.48256">
        <ele>639</ele>
        <time>2021-10-21T20:59:09+02:00</time>
      </trkpt>
      <trkpt lat="43.73612" lon="3.48084">
        <ele>637</ele>
        <time>2021-10-21T20:59:14+02:00</time>
      </trkpt>
      <trkpt lat="43.73816" lon="3.48239">
        <ele>689</ele>
        <time>2021-10-21T20:59:19+02:00</time>
      </trkpt>
      <trkpt lat="43.73934" lon="3.48423">
        <ele>698</ele>
        <time>2021-10-21T20:59:24+02:00</time>
      </trkpt>
      <trkpt lat="43.74046" lon="3.48475">
        <ele>737</ele>
        <time>2021-10-21T20:59:29+02:00</time>
      </trkpt>
      <trkpt lat="43.73996" lon="3.48333">
        <ele>745</ele>
        <time>2021-10-21T20:59:34+02:00</time>
      </trkpt>
      <trkpt lat="43.74008" lon="3.48183">
        <ele>758</ele>
        <time>2021-10-21T20:59:39+02:00</time>
      </trkpt>
      <trkpt lat="43.7407" lon="3.4832">
        <ele>764</ele>
        <time>2021-10-21T20:59:44+02:00</time>
      </trkpt>
      <trkpt lat="43.74173" lon="3.48441">
        <ele>796</ele>
        <time>2021-10-21T20:59:49+02:00</time>
      </trkpt>
      <trkpt lat="43.74256" lon="3.48462">
        <ele>805</ele>
        <time>2021-10-21T20:59:54+02:00</time>
      </trkpt>
      <trkpt lat="43.74284" lon="3.48548">
        <ele>824</ele>
        <time>2021-10-21T20:59:59+02:00</time>
      </trkpt>
      <trkpt lat="43.7434" lon="3.48569">
        <ele>822</ele>
        <time>2021-10-21T21:00:04+02:00</time>
      </trkpt>
      <trkpt lat="43.74452" lon="3.48561">
        <ele>813</ele>
        <time>2021-10-21T21:00:09+02:00</time>
      </trkpt>
      <trkpt lat="43.74554" lon="3.48548">
        <ele>801</ele>
        <time>2021-10-21T21:00:14+02:00</time>
      </trkpt>
      <trkpt lat="43.74663" lon="3.48544">
        <ele>780</ele>
        <time>2021-10-21T21:00:19+02:00</time>
      </trkpt>
      <trkpt lat="43.74635" lon="3.48496">
        <ele>777</ele>
        <time>2021-10-21T21:00:24+02:00</time>
      </trkpt>
      <trkpt lat="43.74678" lon="3.48496">
        <ele>768</ele>
        <time>2021-10-21T21:00:29+02:00</time>
      </trkpt>
      <trkpt lat="43.74656" lon="3.48445">
        <ele>760</ele>
        <time>2021-10-21T21:00:34+02:00</time>
      </trkpt>
      <trkpt lat="43.74728" lon="3.48471">
        <ele>755</ele>
        <time>2021-10-21T21:00:39+02:00</time>
      </trkpt>
      <trkpt lat="43.74712" lon="3.48398">
        <ele>741</ele>
        <time>2021-10-21T21:00:44+02:00</time>
      </trkpt>
      <trkpt lat="43.74824" lon="3.48393">
        <ele>728</ele>
        <time>2021-10-21T21:00:49+02:00</time>
      </trkpt>
      <trkpt lat="43.74976" lon="3.48235">
        <ele>699</ele>
        <time>2021-10-21T21:00:54+02:00</time>
      </trkpt>
      <trkpt lat="43.75146" lon="3.47994">
        <ele>684</ele>
        <time>2021-10-21T21:00:59+02:00</time>
      </trkpt>
      <trkpt lat="43.7523" lon="3.47977">
        <ele>682</ele>
        <time>2021-10-21T21:01:04+02:00</time>
      </trkpt>
      <trkpt lat="43.75326" lon="3.47938">
        <ele>679</ele>
        <time>2021-10-21T21:01:09+02:00</time>
      </trkpt>
      <trkpt lat="43.75286" lon="3.47866">
        <ele>678</ele>
        <time>2021-10-21T21:01:14+02:00</time>
      </trkpt>
      <trkpt lat="43.75298" lon="3.47827">
        <ele>678</ele>
        <time>2021-10-21T21:01:19+02:00</time>
      </trkpt>
      <trkpt lat="43.75273" lon="3.47544">
        <ele>676</ele>
        <time>2021-10-21T21:01:24+02:00</time>
      </trkpt>
      <trkpt lat="43.75258" lon="3.47187">
        <ele>681</ele>
        <time>2021-10-21T21:01:29+02:00</time>
      </trkpt>
      <trkpt lat="43.75298" lon="3.46939">
        <ele>686</ele>
        <time>2021-10-21T21:01:34+02:00</time>
      </trkpt>
      <trkpt lat="43.75403" lon="3.46793">
        <ele>689</ele>
        <time>2021-10-21T21:01:39+02:00</time>
      </trkpt>
      <trkpt lat="43.75413" lon="3.46715">
        <ele>693</ele>
        <time>2021-10-21T21:01:44+02:00</time>
      </trkpt>
      <trkpt lat="43.75447" lon="3.46694">
        <ele>694</ele>
        <time>2021-10-21T21:01:49+02:00</time>
      </trkpt>
      <trkpt lat="43.75447" lon="3.4666">
        <ele>695</ele>
        <time>2021-10-21T21:01:54+02:00</time>
      </trkpt>
      <trkpt lat="43.75527" lon="3.46552">
        <ele>692</ele>
        <time>2021-10-21T21:01:59+02:00</time>
      </trkpt>
      <trkpt lat="43.75695" lon="3.46591">
        <ele>690</ele>
        <time>2021-10-21T21:02:04+02:00</time>
      </trkpt>
      <trkpt lat="43.75732" lon="3.46574">
        <ele>689</ele>
        <time>2021-10-21T21:02:09+02:00</time>
      </trkpt>
      <trkpt lat="43.75763" lon="3.46492">
        <ele>689</ele>
        <time>2021-10-21T21:02:14+02:00</time>
      </trkpt>
      <trkpt lat="43.75881" lon="3.46342">
        <ele>685</ele>
        <time>2021-10-21T21:02:19+02:00</time>
      </trkpt>
      <trkpt lat="43.7585" lon="3.46256">
        <ele>685</ele>
        <time>2021-10-21T21:02:24+02:00</time>
      </trkpt>
      <trkpt lat="43.75782" lon="3.46183">
        <ele>686</ele>
        <time>2021-10-21T21:02:29+02:00</time>
      </trkpt>
      <trkpt lat="43.75881" lon="3.4599">
        <ele>689</ele>
        <time>2021-10-21T21:02:34+02:00</time>
      </trkpt>
      <trkpt lat="43.75952" lon="3.45939">
        <ele>690</ele>
        <time>2021-10-21T21:02:39+02:00</time>
      </trkpt>
      <trkpt lat="43.75915" lon="3.4587">
        <ele>690</ele>
        <time>2021-10-21T21:02:44+02:00</time>
      </trkpt>
      <trkpt lat="43.75949" lon="3.45823">
        <ele>691</ele>
        <time>2021-10-21T21:02:49+02:00</time>
      </trkpt>
      <trkpt lat="43.75961" lon="3.45724">
        <ele>693</ele>
        <time>2021-10-21T21:02:54+02:00</time>
      </trkpt>
      <trkpt lat="43.76051" lon="3.45612">
        <ele>694</ele>
        <time>2021-10-21T21:02:59+02:00</time>
      </trkpt>
      <trkpt lat="43.76188" lon="3.45535">
        <ele>692</ele>
        <time>2021-10-21T21:03:04+02:00</time>
      </trkpt>
      <trkpt lat="43.76333" lon="3.45565">
        <ele>697</ele>
        <time>2021-10-21T21:03:09+02:00</time>
      </trkpt>
      <trkpt lat="43.76491" lon="3.45608">
        <ele>702</ele>
        <time>2021-10-21T21:03:14+02:00</time>
      </trkpt>
      <trkpt lat="43.76612" lon="3.45608">
        <ele>711</ele>
        <time>2021-10-21T21:03:19+02:00</time>
      </trkpt>
      <trkpt lat="43.76814" lon="3.45625">
        <ele>722</ele>
        <time>2021-10-21T21:03:24+02:00</time>
      </trkpt>
      <trkpt lat="43.76876" lon="3.45574">
        <ele>724</ele>
        <time>2021-10-21T21:03:29+02:00</time>
      </trkpt>
      <trkpt lat="43.76925" lon="3.45625">
        <ele>726</ele>
        <time>2021-10-21T21:03:34+02:00</time>
      </trkpt>
      <trkpt lat="43.77012" lon="3.45647">
        <ele>730</ele>
        <time>2021-10-21T21:03:39+02:00</time>
      </trkpt>
      <trkpt lat="43.77059" lon="3.45595">
        <ele>734</ele>
        <time>2021-10-21T21:03:44+02:00</time>
      </trkpt>
      <trkpt lat="43.77161" lon="3.45561">
        <ele>743</ele>
        <time>2021-10-21T21:03:49+02:00</time>
      </trkpt>
      <trkpt lat="43.7726" lon="3.45479">
        <ele>756</ele>
        <time>2021-10-21T21:03:54+02:00</time>
      </trkpt>
      <trkpt lat="43.77365" lon="3.45351">
        <ele>762</ele>
        <time>2021-10-21T21:03:59+02:00</time>
      </trkpt>
      <trkpt lat="43.77399" lon="3.45149">
        <ele>757</ele>
        <time>2021-10-21T21:04:04+02:00</time>
      </trkpt>
      <trkpt lat="43.77443" lon="3.44986">
        <ele>765</ele>
        <time>2021-10-21T21:04:09+02:00</time>
      </trkpt>
      <trkpt lat="43.77461" lon="3.4478">
        <ele>773</ele>
        <time>2021-10-21T21:04:14+02:00</time>
      </trkpt>
      <trkpt lat="43.77492" lon="3.4466">
        <ele>774</ele>
        <time>2021-10-21T21:04:19+02:00</time>
      </trkpt>
      <trkpt lat="43.77582" lon="3.44625">
        <ele>777</ele>
        <time>2021-10-21T21:04:24+02:00</time>
      </trkpt>
      <trkpt lat="43.77635" lon="3.44746">
        <ele>778</ele>
        <time>2021-10-21T21:04:29+02:00</time>
      </trkpt>
      <trkpt lat="43.77657" lon="3.44861">
        <ele>781</ele>
        <time>2021-10-21T21:04:34+02:00</time>
      </trkpt>
      <trkpt lat="43.77722" lon="3.44943">
        <ele>784</ele>
        <time>2021-10-21T21:04:39+02:00</time>
      </trkpt>
      <trkpt lat="43.77737" lon="3.45046">
        <ele>779</ele>
        <time>2021-10-21T21:04:44+02:00</time>
      </trkpt>
      <trkpt lat="43.77824" lon="3.45093">
        <ele>779</ele>
        <time>2021-10-21T21:04:49+02:00</time>
      </trkpt>
      <trkpt lat="43.77833" lon="3.45209">
        <ele>777</ele>
        <time>2021-10-21T21:04:54+02:00</time>
      </trkpt>
      <trkpt lat="43.77914" lon="3.45222">
        <ele>785</ele>
        <time>2021-10-21T21:04:59+02:00</time>
      </trkpt>
      <trkpt lat="43.77994" lon="3.45282">
        <ele>791</ele>
        <time>2021-10-21T21:05:04+02:00</time>
      </trkpt>
      <trkpt lat="43.77942" lon="3.45402">
        <ele>790</ele>
        <time>2021-10-21T21:05:09+02:00</time>
      </trkpt>
      <trkpt lat="43.77883" lon="3.45484">
        <ele>789</ele>
        <time>2021-10-21T21:05:14+02:00</time>
      </trkpt>
      <trkpt lat="43.77886" lon="3.4557">
        <ele>786</ele>
        <time>2021-10-21T21:05:19+02:00</time>
      </trkpt>
      <trkpt lat="43.78063" lon="3.45445">
        <ele>780</ele>
        <time>2021-10-21T21:05:24+02:00</time>
      </trkpt>
      <trkpt lat="43.78162" lon="3.45514">
        <ele>765</ele>
        <time>2021-10-21T21:05:29+02:00</time>
      </trkpt>
      <trkpt lat="43.78279" lon="3.45591">
        <ele>735</ele>
        <time>2021-10-21T21:05:34+02:00</time>
      </trkpt>
      <trkpt lat="43.78608" lon="3.45651">
        <ele>674</ele>
        <time>2021-10-21T21:05:39+02:00</time>
      </trkpt>
      <trkpt lat="43.78673" lon="3.45673">
        <ele>662</ele>
        <time>2021-10-21T21:05:44+02:00</time>
      </trkpt>
      <trkpt lat="43.78713" lon="3.45707">
        <ele>660</ele>
        <time>2021-10-21T21:05:49+02:00</time>
      </trkpt>
      <trkpt lat="43.78766" lon="3.45711">
        <ele>657</ele>
        <time>2021-10-21T21:05:54+02:00</time>
      </trkpt>
      <trkpt lat="43.78887" lon="3.45921">
        <ele>641</ele>
        <time>2021-10-21T21:05:59+02:00</time>
      </trkpt>
      <trkpt lat="43.78961" lon="3.45956">
        <ele>637</ele>
        <time>2021-10-21T21:06:04+02:00</time>
      </trkpt>
      <trkpt lat="43.7911" lon="3.45917">
        <ele>628</ele>
        <time>2021-10-21T21:06:09+02:00</time>
      </trkpt>
      <trkpt lat="43.79224" lon="3.4584">
        <ele>623</ele>
        <time>2021-10-21T21:06:14+02:00</time>
      </trkpt>
      <trkpt lat="43.79457" lon="3.45913">
        <ele>619</ele>
        <time>2021-10-21T21:06:19+02:00</time>
      </trkpt>
      <trkpt lat="43.79698" lon="3.46102">
        <ele>611</ele>
        <time>2021-10-21T21:06:24+02:00</time>
      </trkpt>
      <trkpt lat="43.80051" lon="3.46501">
        <ele>603</ele>
        <time>2021-10-21T21:06:29+02:00</time>
      </trkpt>
      <trkpt lat="43.80268" lon="3.46728">
        <ele>603</ele>
        <time>2021-10-21T21:06:34+02:00</time>
      </trkpt>
      <trkpt lat="43.80494" lon="3.46887">
        <ele>599</ele>
        <time>2021-10-21T21:06:39+02:00</time>
      </trkpt>
      <trkpt lat="43.80578" lon="3.46926">
        <ele>595</ele>
        <time>2021-10-21T21:06:44+02:00</time>
      </trkpt>
      <trkpt lat="43.8072" lon="3.47033">
        <ele>590</ele>
        <time>2021-10-21T21:06:49+02:00</time>
      </trkpt>
      <trkpt lat="43.80761" lon="3.4714">
        <ele>590</ele>
        <time>2021-10-21T21:06:54+02:00</time>
      </trkpt>
      <trkpt lat="43.81448" lon="3.47406">
        <ele>578</ele>
        <time>2021-10-21T21:06:59+02:00</time>
      </trkpt>
      <trkpt lat="43.81547" lon="3.47351">
        <ele>577</ele>
        <time>2021-10-21T21:07:04+02:00</time>
      </trkpt>
      <trkpt lat="43.81702" lon="3.47389">
        <ele>575</ele>
        <time>2021-10-21T21:07:09+02:00</time>
      </trkpt>
      <trkpt lat="43.81972" lon="3.47548">
        <ele>576</ele>
        <time>2021-10-21T21:07:14+02:00</time>
      </trkpt>
      <trkpt lat="43.82157" lon="3.47569">
        <ele>591</ele>
        <time>2021-10-21T21:07:19+02:00</time>
      </trkpt>
      <trkpt lat="43.82198" lon="3.47655">
        <ele>587</ele>
        <time>2021-10-21T21:07:24+02:00</time>
      </trkpt>
      <trkpt lat="43.82386" lon="3.47767">
        <ele>581</ele>
        <time>2021-10-21T21:07:29+02:00</time>
      </trkpt>
      <trkpt lat="43.82498" lon="3.47823">
        <ele>577</ele>
        <time>2021-10-21T21:07:34+02:00</time>
      </trkpt>
      <trkpt lat="43.82715" lon="3.47814">
        <ele>581</ele>
        <time>2021-10-21T21:07:39+02:00</time>
      </trkpt>
      <trkpt lat="43.82752" lon="3.47861">
        <ele>575</ele>
        <time>2021-10-21T21:07:44+02:00</time>
      </trkpt>
      <trkpt lat="43.82907" lon="3.47848">
        <ele>581</ele>
        <time>2021-10-21T21:07:49+02:00</time>
      </trkpt>
      <trkpt lat="43.82962" lon="3.4793">
        <ele>583</ele>
        <time>2021-10-21T21:07:54+02:00</time>
      </trkpt>
      <trkpt lat="43.83142" lon="3.48106">
        <ele>602</ele>
        <time>2021-10-21T21:07:59+02:00</time>
      </trkpt>
      <trkpt lat="43.83334" lon="3.48127">
        <ele>612</ele>
        <time>2021-10-21T21:08:04+02:00</time>
      </trkpt>
      <trkpt lat="43.83482" lon="3.48067">
        <ele>617</ele>
        <time>2021-10-21T21:08:09+02:00</time>
      </trkpt>
      <trkpt lat="43.83619" lon="3.47848">
        <ele>627</ele>
        <time>2021-10-21T21:08:14+02:00</time>
      </trkpt>
      <trkpt lat="43.83619" lon="3.47827">
        <ele>629</ele>
        <time>2021-10-21T21:08:19+02:00</time>
      </trkpt>
      <trkpt lat="43.83807" lon="3.48067">
        <ele>635</ele>
        <time>2021-10-21T21:08:24+02:00</time>
      </trkpt>
      <trkpt lat="43.84024" lon="3.48093">
        <ele>634</ele>
        <time>2021-10-21T21:08:29+02:00</time>
      </trkpt>
    </trkseg>
  </trk>
</gpx>